sensor_id;sensor_type;location;lat;lon;timestamp;P1;durP1;ratioP1;P2;durP2;ratioP2
61907;SDS011;47864;52.526;19.672;2024-03-02T00:00:33;49.25;;;31.70;;
61907;SDS011;47864;52.526;19.672;2024-03-02T00:02:41;50.95;;;31.27;;
61907;SDS011;47864;52.526;19.672;2024-03-02T00:04:46;49.47;;;31.52;;
61907;SDS011;47864;52.526;19.672;2024-03-02T00:06:50;49.90;;;30.30;;
61907;SDS011;47864;52.526;19.672;2024-03-02T00:08:55;55.15;;;32.10;;
61907;SDS011;47864;52.526;19.672;2024-03-02T00:11:00;50.85;;;30.30;;
61907;SDS011;47864;52.526;19.672;2024-03-02T00:13:02;54.03;;;32.22;;
61907;SDS011;47864;52.526;19.672;2024-03-02T00:17:42;50.55;;;32.17;;
61907;SDS011;47864;52.526;19.672;2024-03-02T00:19:43;47.70;;;30.65;;
61907;SDS011;47864;52.526;19.672;2024-03-02T00:21:45;45.80;;;30.38;;
61907;SDS011;47864;52.526;19.672;2024-03-02T00:23:47;48.60;;;31.00;;
61907;SDS011;47864;52.526;19.672;2024-03-02T00:25:50;43.70;;;29.90;;
61907;SDS011;47864;52.526;19.672;2024-03-02T00:27:53;48.38;;;31.23;;
61907;SDS011;47864;52.526;19.672;2024-03-02T00:29:55;47.63;;;30.50;;
61907;SDS011;47864;52.526;19.672;2024-03-02T00:31:57;54.10;;;32.75;;
61907;SDS011;47864;52.526;19.672;2024-03-02T00:33:59;49.35;;;30.35;;
61907;SDS011;47864;52.526;19.672;2024-03-02T00:36:03;47.17;;;30.15;;
61907;SDS011;47864;52.526;19.672;2024-03-02T00:38:06;48.28;;;30.83;;
61907;SDS011;47864;52.526;19.672;2024-03-02T00:40:07;43.70;;;28.95;;
61907;SDS011;47864;52.526;19.672;2024-03-02T00:42:10;48.30;;;29.77;;
61907;SDS011;47864;52.526;19.672;2024-03-02T00:44:13;46.97;;;29.13;;
61907;SDS011;47864;52.526;19.672;2024-03-02T00:50:22;49.58;;;30.98;;
61907;SDS011;47864;52.526;19.672;2024-03-02T00:52:31;50.33;;;29.88;;
61907;SDS011;47864;52.526;19.672;2024-03-02T00:54:33;49.92;;;30.20;;
61907;SDS011;47864;52.526;19.672;2024-03-02T00:56:34;49.65;;;31.17;;
61907;SDS011;47864;52.526;19.672;2024-03-02T00:58:36;48.97;;;30.02;;
61907;SDS011;47864;52.526;19.672;2024-03-02T01:00:38;52.17;;;31.77;;
61907;SDS011;47864;52.526;19.672;2024-03-02T01:02:40;54.45;;;30.50;;
61907;SDS011;47864;52.526;19.672;2024-03-02T01:04:41;56.83;;;32.65;;
61907;SDS011;47864;52.526;19.672;2024-03-02T01:06:43;52.38;;;32.20;;
61907;SDS011;47864;52.526;19.672;2024-03-02T01:08:44;52.15;;;31.40;;
61907;SDS011;47864;52.526;19.672;2024-03-02T01:10:46;51.55;;;31.35;;
61907;SDS011;47864;52.526;19.672;2024-03-02T01:12:48;49.30;;;31.52;;
61907;SDS011;47864;52.526;19.672;2024-03-02T01:14:50;51.63;;;31.35;;
61907;SDS011;47864;52.526;19.672;2024-03-02T01:16:51;52.13;;;32.60;;
61907;SDS011;47864;52.526;19.672;2024-03-02T01:18:53;52.05;;;31.92;;
61907;SDS011;47864;52.526;19.672;2024-03-02T01:20:55;57.15;;;33.55;;
61907;SDS011;47864;52.526;19.672;2024-03-02T01:22:56;57.50;;;33.83;;
61907;SDS011;47864;52.526;19.672;2024-03-02T01:24:58;57.60;;;33.25;;
61907;SDS011;47864;52.526;19.672;2024-03-02T01:26:59;60.42;;;34.28;;
61907;SDS011;47864;52.526;19.672;2024-03-02T01:29:01;52.28;;;34.35;;
61907;SDS011;47864;52.526;19.672;2024-03-02T01:31:02;59.90;;;33.50;;
61907;SDS011;47864;52.526;19.672;2024-03-02T01:33:04;53.72;;;34.42;;
61907;SDS011;47864;52.526;19.672;2024-03-02T01:35:06;59.50;;;36.05;;
61907;SDS011;47864;52.526;19.672;2024-03-02T01:37:07;54.95;;;33.78;;
61907;SDS011;47864;52.526;19.672;2024-03-02T01:39:09;56.83;;;33.30;;
61907;SDS011;47864;52.526;19.672;2024-03-02T01:41:10;54.72;;;34.53;;
61907;SDS011;47864;52.526;19.672;2024-03-02T01:43:12;60.15;;;33.60;;
61907;SDS011;47864;52.526;19.672;2024-03-02T01:45:14;59.25;;;34.85;;
61907;SDS011;47864;52.526;19.672;2024-03-02T01:47:16;57.28;;;35.33;;
61907;SDS011;47864;52.526;19.672;2024-03-02T01:49:17;54.45;;;34.72;;
61907;SDS011;47864;52.526;19.672;2024-03-02T01:51:19;55.40;;;34.05;;
61907;SDS011;47864;52.526;19.672;2024-03-02T01:53:20;56.75;;;35.10;;
61907;SDS011;47864;52.526;19.672;2024-03-02T01:55:22;56.95;;;36.30;;
61907;SDS011;47864;52.526;19.672;2024-03-02T01:57:24;58.78;;;34.05;;
61907;SDS011;47864;52.526;19.672;2024-03-02T01:59:25;55.20;;;33.53;;
61907;SDS011;47864;52.526;19.672;2024-03-02T02:01:28;57.08;;;33.65;;
61907;SDS011;47864;52.526;19.672;2024-03-02T02:03:29;54.97;;;33.00;;
61907;SDS011;47864;52.526;19.672;2024-03-02T02:05:31;56.70;;;34.95;;
61907;SDS011;47864;52.526;19.672;2024-03-02T02:07:33;58.90;;;35.50;;
61907;SDS011;47864;52.526;19.672;2024-03-02T02:09:36;63.00;;;35.63;;
61907;SDS011;47864;52.526;19.672;2024-03-02T02:11:37;59.25;;;34.33;;
61907;SDS011;47864;52.526;19.672;2024-03-02T02:13:39;60.13;;;34.55;;
61907;SDS011;47864;52.526;19.672;2024-03-02T02:15:41;59.45;;;35.78;;
61907;SDS011;47864;52.526;19.672;2024-03-02T02:17:42;59.35;;;35.00;;
61907;SDS011;47864;52.526;19.672;2024-03-02T02:19:44;62.63;;;35.58;;
61907;SDS011;47864;52.526;19.672;2024-03-02T02:21:45;61.10;;;36.75;;
61907;SDS011;47864;52.526;19.672;2024-03-02T02:23:47;65.43;;;36.83;;
61907;SDS011;47864;52.526;19.672;2024-03-02T02:25:49;59.72;;;36.58;;
61907;SDS011;47864;52.526;19.672;2024-03-02T02:27:50;61.58;;;35.97;;
61907;SDS011;47864;52.526;19.672;2024-03-02T02:29:52;62.33;;;37.30;;
61907;SDS011;47864;52.526;19.672;2024-03-02T02:31:54;62.15;;;36.05;;
61907;SDS011;47864;52.526;19.672;2024-03-02T02:33:55;64.53;;;37.90;;
61907;SDS011;47864;52.526;19.672;2024-03-02T02:35:57;61.70;;;36.38;;
61907;SDS011;47864;52.526;19.672;2024-03-02T02:37:59;59.83;;;36.83;;
61907;SDS011;47864;52.526;19.672;2024-03-02T02:40:00;60.78;;;36.28;;
61907;SDS011;47864;52.526;19.672;2024-03-02T02:42:02;60.13;;;36.65;;
61907;SDS011;47864;52.526;19.672;2024-03-02T02:44:04;57.03;;;34.88;;
61907;SDS011;47864;52.526;19.672;2024-03-02T02:46:06;62.50;;;36.95;;
61907;SDS011;47864;52.526;19.672;2024-03-02T02:48:07;59.47;;;36.65;;
61907;SDS011;47864;52.526;19.672;2024-03-02T02:50:10;58.70;;;34.83;;
61907;SDS011;47864;52.526;19.672;2024-03-02T02:52:12;59.50;;;35.67;;
61907;SDS011;47864;52.526;19.672;2024-03-02T02:54:14;63.17;;;36.10;;
61907;SDS011;47864;52.526;19.672;2024-03-02T02:56:16;64.00;;;37.60;;
61907;SDS011;47864;52.526;19.672;2024-03-02T02:58:17;60.25;;;35.25;;
61907;SDS011;47864;52.526;19.672;2024-03-02T03:00:19;61.65;;;36.00;;
61907;SDS011;47864;52.526;19.672;2024-03-02T03:02:21;62.70;;;36.85;;
61907;SDS011;47864;52.526;19.672;2024-03-02T03:04:22;59.35;;;35.30;;
61907;SDS011;47864;52.526;19.672;2024-03-02T03:06:24;59.20;;;35.95;;
61907;SDS011;47864;52.526;19.672;2024-03-02T03:08:26;61.47;;;36.88;;
61907;SDS011;47864;52.526;19.672;2024-03-02T03:10:27;62.65;;;36.13;;
61907;SDS011;47864;52.526;19.672;2024-03-02T03:12:29;63.90;;;37.55;;
61907;SDS011;47864;52.526;19.672;2024-03-02T03:14:31;63.28;;;36.65;;
61907;SDS011;47864;52.526;19.672;2024-03-02T03:16:33;61.60;;;37.92;;
61907;SDS011;47864;52.526;19.672;2024-03-02T03:18:34;103.72;;;48.88;;
61907;SDS011;47864;52.526;19.672;2024-03-02T03:20:36;61.92;;;36.20;;
61907;SDS011;47864;52.526;19.672;2024-03-02T03:22:38;59.38;;;36.42;;
61907;SDS011;47864;52.526;19.672;2024-03-02T03:24:40;60.42;;;36.38;;
61907;SDS011;47864;52.526;19.672;2024-03-02T03:26:41;61.20;;;35.17;;
61907;SDS011;47864;52.526;19.672;2024-03-02T03:28:43;62.67;;;36.22;;
61907;SDS011;47864;52.526;19.672;2024-03-02T03:30:44;55.05;;;34.30;;
61907;SDS011;47864;52.526;19.672;2024-03-02T03:32:46;60.85;;;35.42;;
61907;SDS011;47864;52.526;19.672;2024-03-02T03:34:48;59.45;;;36.15;;
61907;SDS011;47864;52.526;19.672;2024-03-02T03:36:49;59.15;;;35.67;;
61907;SDS011;47864;52.526;19.672;2024-03-02T03:38:51;60.25;;;35.25;;
61907;SDS011;47864;52.526;19.672;2024-03-02T03:40:52;56.20;;;34.15;;
61907;SDS011;47864;52.526;19.672;2024-03-02T03:42:54;60.33;;;35.08;;
61907;SDS011;47864;52.526;19.672;2024-03-02T03:44:55;57.95;;;34.22;;
61907;SDS011;47864;52.526;19.672;2024-03-02T03:46:57;53.63;;;33.88;;
61907;SDS011;47864;52.526;19.672;2024-03-02T03:48:58;62.15;;;35.20;;
61907;SDS011;47864;52.526;19.672;2024-03-02T03:51:00;57.95;;;34.00;;
61907;SDS011;47864;52.526;19.672;2024-03-02T03:53:02;58.28;;;34.65;;
61907;SDS011;47864;52.526;19.672;2024-03-02T03:55:03;61.10;;;36.47;;
61907;SDS011;47864;52.526;19.672;2024-03-02T03:57:05;55.65;;;33.70;;
61907;SDS011;47864;52.526;19.672;2024-03-02T03:59:07;59.72;;;35.03;;
61907;SDS011;47864;52.526;19.672;2024-03-02T04:01:08;57.72;;;34.65;;
61907;SDS011;47864;52.526;19.672;2024-03-02T04:03:10;56.33;;;34.72;;
61907;SDS011;47864;52.526;19.672;2024-03-02T04:05:11;60.38;;;34.85;;
61907;SDS011;47864;52.526;19.672;2024-03-02T04:07:13;63.42;;;36.70;;
61907;SDS011;47864;52.526;19.672;2024-03-02T04:09:15;58.83;;;34.72;;
61907;SDS011;47864;52.526;19.672;2024-03-02T04:11:16;58.83;;;34.22;;
61907;SDS011;47864;52.526;19.672;2024-03-02T04:13:18;54.70;;;34.10;;
61907;SDS011;47864;52.526;19.672;2024-03-02T04:15:20;56.67;;;35.00;;
61907;SDS011;47864;52.526;19.672;2024-03-02T04:17:21;126.60;;;74.35;;
61907;SDS011;47864;52.526;19.672;2024-03-02T04:19:23;56.85;;;35.40;;
61907;SDS011;47864;52.526;19.672;2024-03-02T04:21:25;59.95;;;34.25;;
61907;SDS011;47864;52.526;19.672;2024-03-02T04:23:26;59.08;;;35.17;;
61907;SDS011;47864;52.526;19.672;2024-03-02T04:25:28;54.55;;;33.63;;
61907;SDS011;47864;52.526;19.672;2024-03-02T04:27:30;55.28;;;34.10;;
61907;SDS011;47864;52.526;19.672;2024-03-02T04:29:32;57.58;;;34.97;;
61907;SDS011;47864;52.526;19.672;2024-03-02T04:31:33;56.33;;;34.15;;
61907;SDS011;47864;52.526;19.672;2024-03-02T04:33:35;57.53;;;34.55;;
61907;SDS011;47864;52.526;19.672;2024-03-02T04:35:37;55.53;;;34.65;;
61907;SDS011;47864;52.526;19.672;2024-03-02T04:37:38;58.70;;;34.38;;
61907;SDS011;47864;52.526;19.672;2024-03-02T04:39:40;55.75;;;33.67;;
61907;SDS011;47864;52.526;19.672;2024-03-02T04:41:41;60.38;;;34.28;;
61907;SDS011;47864;52.526;19.672;2024-03-02T04:43:43;53.17;;;33.33;;
61907;SDS011;47864;52.526;19.672;2024-03-02T04:45:44;52.95;;;33.20;;
61907;SDS011;47864;52.526;19.672;2024-03-02T04:47:46;56.22;;;33.63;;
61907;SDS011;47864;52.526;19.672;2024-03-02T04:49:50;55.78;;;33.70;;
61907;SDS011;47864;52.526;19.672;2024-03-02T04:51:52;51.60;;;32.20;;
61907;SDS011;47864;52.526;19.672;2024-03-02T04:53:53;54.63;;;32.38;;
61907;SDS011;47864;52.526;19.672;2024-03-02T04:55:55;59.92;;;34.88;;
61907;SDS011;47864;52.526;19.672;2024-03-02T04:57:56;54.25;;;33.38;;
61907;SDS011;47864;52.526;19.672;2024-03-02T04:59:58;54.15;;;33.08;;
61907;SDS011;47864;52.526;19.672;2024-03-02T05:02:00;57.38;;;33.15;;
61907;SDS011;47864;52.526;19.672;2024-03-02T05:04:01;57.05;;;35.17;;
61907;SDS011;47864;52.526;19.672;2024-03-02T05:06:03;55.45;;;32.88;;
61907;SDS011;47864;52.526;19.672;2024-03-02T05:08:05;58.38;;;34.80;;
61907;SDS011;47864;52.526;19.672;2024-03-02T05:10:07;52.28;;;33.13;;
61907;SDS011;47864;52.526;19.672;2024-03-02T05:12:09;57.85;;;34.30;;
61907;SDS011;47864;52.526;19.672;2024-03-02T05:14:11;54.00;;;33.88;;
61907;SDS011;47864;52.526;19.672;2024-03-02T05:16:13;59.47;;;35.35;;
61907;SDS011;47864;52.526;19.672;2024-03-02T05:18:14;51.78;;;31.13;;
61907;SDS011;47864;52.526;19.672;2024-03-02T05:20:16;53.83;;;33.15;;
61907;SDS011;47864;52.526;19.672;2024-03-02T05:22:18;56.85;;;33.38;;
61907;SDS011;47864;52.526;19.672;2024-03-02T05:24:19;55.45;;;31.92;;
61907;SDS011;47864;52.526;19.672;2024-03-02T05:26:21;57.22;;;33.53;;
61907;SDS011;47864;52.526;19.672;2024-03-02T05:28:22;58.17;;;34.47;;
61907;SDS011;47864;52.526;19.672;2024-03-02T05:30:24;56.47;;;32.50;;
61907;SDS011;47864;52.526;19.672;2024-03-02T05:32:25;53.92;;;33.20;;
61907;SDS011;47864;52.526;19.672;2024-03-02T05:34:27;55.17;;;33.70;;
61907;SDS011;47864;52.526;19.672;2024-03-02T05:36:29;60.85;;;34.72;;
61907;SDS011;47864;52.526;19.672;2024-03-02T05:38:30;57.50;;;34.80;;
61907;SDS011;47864;52.526;19.672;2024-03-02T05:40:32;56.45;;;32.90;;
61907;SDS011;47864;52.526;19.672;2024-03-02T05:42:33;54.45;;;34.33;;
61907;SDS011;47864;52.526;19.672;2024-03-02T05:44:38;58.58;;;34.33;;
61907;SDS011;47864;52.526;19.672;2024-03-02T05:46:39;60.03;;;34.95;;
61907;SDS011;47864;52.526;19.672;2024-03-02T05:48:41;59.30;;;34.85;;
61907;SDS011;47864;52.526;19.672;2024-03-02T05:50:43;62.40;;;34.58;;
61907;SDS011;47864;52.526;19.672;2024-03-02T05:52:45;63.38;;;36.00;;
61907;SDS011;47864;52.526;19.672;2024-03-02T05:54:46;59.45;;;35.60;;
61907;SDS011;47864;52.526;19.672;2024-03-02T05:56:48;61.45;;;35.47;;
61907;SDS011;47864;52.526;19.672;2024-03-02T05:58:50;60.88;;;36.92;;
61907;SDS011;47864;52.526;19.672;2024-03-02T06:00:51;62.53;;;35.20;;
61907;SDS011;47864;52.526;19.672;2024-03-02T06:02:53;60.08;;;36.80;;
61907;SDS011;47864;52.526;19.672;2024-03-02T06:04:55;61.25;;;35.55;;
61907;SDS011;47864;52.526;19.672;2024-03-02T06:06:57;68.28;;;36.35;;
61907;SDS011;47864;52.526;19.672;2024-03-02T06:09:02;63.03;;;35.80;;
61907;SDS011;47864;52.526;19.672;2024-03-02T06:11:04;63.20;;;35.83;;
61907;SDS011;47864;52.526;19.672;2024-03-02T06:13:06;64.93;;;34.70;;
61907;SDS011;47864;52.526;19.672;2024-03-02T06:15:07;63.53;;;34.55;;
61907;SDS011;47864;52.526;19.672;2024-03-02T06:17:09;59.60;;;36.50;;
61907;SDS011;47864;52.526;19.672;2024-03-02T06:19:11;62.10;;;36.38;;
61907;SDS011;47864;52.526;19.672;2024-03-02T06:21:12;60.58;;;36.10;;
61907;SDS011;47864;52.526;19.672;2024-03-02T06:23:14;59.20;;;34.05;;
61907;SDS011;47864;52.526;19.672;2024-03-02T06:25:15;60.55;;;36.03;;
61907;SDS011;47864;52.526;19.672;2024-03-02T06:27:17;61.55;;;35.75;;
61907;SDS011;47864;52.526;19.672;2024-03-02T06:29:19;63.63;;;37.60;;
61907;SDS011;47864;52.526;19.672;2024-03-02T06:31:20;63.78;;;36.58;;
61907;SDS011;47864;52.526;19.672;2024-03-02T06:33:22;65.53;;;37.85;;
61907;SDS011;47864;52.526;19.672;2024-03-02T06:35:23;59.47;;;35.45;;
61907;SDS011;47864;52.526;19.672;2024-03-02T06:37:25;63.88;;;36.53;;
61907;SDS011;47864;52.526;19.672;2024-03-02T06:39:26;58.10;;;34.85;;
61907;SDS011;47864;52.526;19.672;2024-03-02T06:41:28;66.07;;;37.70;;
61907;SDS011;47864;52.526;19.672;2024-03-02T06:43:30;71.63;;;39.10;;
61907;SDS011;47864;52.526;19.672;2024-03-02T06:45:31;61.72;;;35.78;;
61907;SDS011;47864;52.526;19.672;2024-03-02T06:47:33;71.03;;;39.65;;
61907;SDS011;47864;52.526;19.672;2024-03-02T06:49:34;64.10;;;36.55;;
61907;SDS011;47864;52.526;19.672;2024-03-02T06:51:36;67.60;;;38.00;;
61907;SDS011;47864;52.526;19.672;2024-03-02T06:53:38;64.55;;;35.88;;
61907;SDS011;47864;52.526;19.672;2024-03-02T06:55:39;63.33;;;37.78;;
61907;SDS011;47864;52.526;19.672;2024-03-02T06:57:41;67.00;;;38.47;;
61907;SDS011;47864;52.526;19.672;2024-03-02T06:59:42;63.22;;;35.13;;
61907;SDS011;47864;52.526;19.672;2024-03-02T07:01:44;64.22;;;37.97;;
61907;SDS011;47864;52.526;19.672;2024-03-02T07:03:45;68.32;;;38.28;;
61907;SDS011;47864;52.526;19.672;2024-03-02T07:05:47;67.20;;;37.42;;
61907;SDS011;47864;52.526;19.672;2024-03-02T07:07:49;62.45;;;37.67;;
61907;SDS011;47864;52.526;19.672;2024-03-02T07:09:50;64.00;;;37.55;;
61907;SDS011;47864;52.526;19.672;2024-03-02T07:11:52;62.60;;;36.97;;
61907;SDS011;47864;52.526;19.672;2024-03-02T07:13:53;67.05;;;37.55;;
61907;SDS011;47864;52.526;19.672;2024-03-02T07:15:55;66.60;;;38.22;;
61907;SDS011;47864;52.526;19.672;2024-03-02T07:17:57;62.25;;;37.67;;
61907;SDS011;47864;52.526;19.672;2024-03-02T07:19:58;66.60;;;37.17;;
61907;SDS011;47864;52.526;19.672;2024-03-02T07:22:00;64.53;;;37.58;;
61907;SDS011;47864;52.526;19.672;2024-03-02T07:24:02;71.00;;;39.85;;
61907;SDS011;47864;52.526;19.672;2024-03-02T07:26:04;85.20;;;45.35;;
61907;SDS011;47864;52.526;19.672;2024-03-02T07:28:08;129.48;;;61.00;;
61907;SDS011;47864;52.526;19.672;2024-03-02T07:30:13;103.05;;;49.95;;
61907;SDS011;47864;52.526;19.672;2024-03-02T07:32:15;97.80;;;51.45;;
61907;SDS011;47864;52.526;19.672;2024-03-02T07:34:16;232.80;;;90.70;;
61907;SDS011;47864;52.526;19.672;2024-03-02T07:36:18;206.15;;;75.25;;
61907;SDS011;47864;52.526;19.672;2024-03-02T07:38:20;164.63;;;58.70;;
61907;SDS011;47864;52.526;19.672;2024-03-02T07:40:21;115.07;;;48.15;;
61907;SDS011;47864;52.526;19.672;2024-03-02T07:42:23;356.75;;;109.57;;
61907;SDS011;47864;52.526;19.672;2024-03-02T07:44:25;179.77;;;65.78;;
61907;SDS011;47864;52.526;19.672;2024-03-02T07:46:26;151.80;;;56.85;;
61907;SDS011;47864;52.526;19.672;2024-03-02T07:48:28;162.73;;;64.28;;
61907;SDS011;47864;52.526;19.672;2024-03-02T07:50:29;79.63;;;43.75;;
61907;SDS011;47864;52.526;19.672;2024-03-02T07:52:31;76.30;;;38.42;;
61907;SDS011;47864;52.526;19.672;2024-03-02T07:54:33;73.38;;;40.75;;
61907;SDS011;47864;52.526;19.672;2024-03-02T07:56:35;84.80;;;42.58;;
61907;SDS011;47864;52.526;19.672;2024-03-02T07:58:36;90.28;;;42.20;;
61907;SDS011;47864;52.526;19.672;2024-03-02T08:00:39;76.78;;;39.60;;
61907;SDS011;47864;52.526;19.672;2024-03-02T08:02:41;92.05;;;44.38;;
61907;SDS011;47864;52.526;19.672;2024-03-02T08:04:43;100.18;;;44.42;;
61907;SDS011;47864;52.526;19.672;2024-03-02T08:06:45;80.80;;;41.80;;
61907;SDS011;47864;52.526;19.672;2024-03-02T08:08:46;79.63;;;41.28;;
61907;SDS011;47864;52.526;19.672;2024-03-02T08:10:48;88.35;;;42.17;;
61907;SDS011;47864;52.526;19.672;2024-03-02T08:12:50;91.22;;;44.47;;
61907;SDS011;47864;52.526;19.672;2024-03-02T08:14:52;100.50;;;47.78;;
61907;SDS011;47864;52.526;19.672;2024-03-02T08:16:53;97.82;;;45.03;;
61907;SDS011;47864;52.526;19.672;2024-03-02T08:18:55;77.60;;;40.95;;
61907;SDS011;47864;52.526;19.672;2024-03-02T08:20:56;89.22;;;43.38;;
61907;SDS011;47864;52.526;19.672;2024-03-02T08:22:58;111.97;;;47.40;;
61907;SDS011;47864;52.526;19.672;2024-03-02T08:24:59;101.93;;;44.88;;
61907;SDS011;47864;52.526;19.672;2024-03-02T08:27:01;85.25;;;43.17;;
61907;SDS011;47864;52.526;19.672;2024-03-02T08:29:03;81.43;;;42.88;;
61907;SDS011;47864;52.526;19.672;2024-03-02T08:31:04;87.55;;;42.03;;
61907;SDS011;47864;52.526;19.672;2024-03-02T08:33:06;89.57;;;44.90;;
61907;SDS011;47864;52.526;19.672;2024-03-02T08:35:08;91.18;;;42.13;;
61907;SDS011;47864;52.526;19.672;2024-03-02T08:37:09;86.55;;;41.97;;
61907;SDS011;47864;52.526;19.672;2024-03-02T08:39:11;83.40;;;43.00;;
61907;SDS011;47864;52.526;19.672;2024-03-02T08:41:13;98.28;;;45.92;;
61907;SDS011;47864;52.526;19.672;2024-03-02T08:43:14;101.07;;;45.55;;
61907;SDS011;47864;52.526;19.672;2024-03-02T08:45:16;80.88;;;38.47;;
61907;SDS011;47864;52.526;19.672;2024-03-02T08:47:18;90.90;;;43.80;;
61907;SDS011;47864;52.526;19.672;2024-03-02T08:49:19;96.60;;;44.38;;
61907;SDS011;47864;52.526;19.672;2024-03-02T08:51:21;82.20;;;41.83;;
61907;SDS011;47864;52.526;19.672;2024-03-02T08:53:22;81.85;;;44.03;;
61907;SDS011;47864;52.526;19.672;2024-03-02T08:55:24;87.70;;;42.40;;
61907;SDS011;47864;52.526;19.672;2024-03-02T08:57:25;83.65;;;40.45;;
61907;SDS011;47864;52.526;19.672;2024-03-02T08:59:27;82.32;;;42.97;;
61907;SDS011;47864;52.526;19.672;2024-03-02T09:01:28;77.80;;;40.30;;
61907;SDS011;47864;52.526;19.672;2024-03-02T09:03:30;82.68;;;40.58;;
61907;SDS011;47864;52.526;19.672;2024-03-02T09:05:32;81.05;;;41.92;;
61907;SDS011;47864;52.526;19.672;2024-03-02T09:07:33;83.85;;;42.28;;
61907;SDS011;47864;52.526;19.672;2024-03-02T09:09:35;78.53;;;39.90;;
61907;SDS011;47864;52.526;19.672;2024-03-02T09:11:36;92.55;;;44.47;;
61907;SDS011;47864;52.526;19.672;2024-03-02T09:13:38;84.32;;;43.50;;
61907;SDS011;47864;52.526;19.672;2024-03-02T09:15:40;81.00;;;40.20;;
61907;SDS011;47864;52.526;19.672;2024-03-02T09:17:41;79.28;;;41.60;;
61907;SDS011;47864;52.526;19.672;2024-03-02T09:19:43;85.93;;;41.55;;
61907;SDS011;47864;52.526;19.672;2024-03-02T09:21:44;79.05;;;42.33;;
61907;SDS011;47864;52.526;19.672;2024-03-02T09:23:46;82.35;;;42.28;;
61907;SDS011;47864;52.526;19.672;2024-03-02T09:25:47;80.38;;;40.53;;
61907;SDS011;47864;52.526;19.672;2024-03-02T09:27:49;78.50;;;39.80;;
61907;SDS011;47864;52.526;19.672;2024-03-02T09:29:51;80.53;;;40.63;;
61907;SDS011;47864;52.526;19.672;2024-03-02T09:31:52;76.38;;;40.70;;
61907;SDS011;47864;52.526;19.672;2024-03-02T09:33:54;79.63;;;39.25;;
61907;SDS011;47864;52.526;19.672;2024-03-02T09:35:55;79.47;;;40.40;;
61907;SDS011;47864;52.526;19.672;2024-03-02T09:37:57;77.88;;;40.67;;
61907;SDS011;47864;52.526;19.672;2024-03-02T09:39:58;81.28;;;40.45;;
61907;SDS011;47864;52.526;19.672;2024-03-02T09:42:00;79.93;;;39.70;;
61907;SDS011;47864;52.526;19.672;2024-03-02T09:44:02;79.25;;;39.67;;
61907;SDS011;47864;52.526;19.672;2024-03-02T09:46:04;80.32;;;39.90;;
61907;SDS011;47864;52.526;19.672;2024-03-02T09:48:06;74.43;;;39.15;;
61907;SDS011;47864;52.526;19.672;2024-03-02T09:50:08;72.15;;;39.63;;
61907;SDS011;47864;52.526;19.672;2024-03-02T09:52:10;69.25;;;38.33;;
61907;SDS011;47864;52.526;19.672;2024-03-02T09:54:12;73.70;;;38.45;;
61907;SDS011;47864;52.526;19.672;2024-03-02T09:56:23;73.90;;;37.90;;
61907;SDS011;47864;52.526;19.672;2024-03-02T09:58:24;82.85;;;42.28;;
61907;SDS011;47864;52.526;19.672;2024-03-02T10:00:26;77.75;;;39.72;;
61907;SDS011;47864;52.526;19.672;2024-03-02T10:02:27;96.60;;;48.67;;
61907;SDS011;47864;52.526;19.672;2024-03-02T10:04:29;75.90;;;44.53;;
61907;SDS011;47864;52.526;19.672;2024-03-02T10:06:31;76.75;;;41.25;;
61907;SDS011;47864;52.526;19.672;2024-03-02T10:08:45;73.15;;;37.10;;
61907;SDS011;47864;52.526;19.672;2024-03-02T10:10:46;68.90;;;37.38;;
61907;SDS011;47864;52.526;19.672;2024-03-02T10:12:48;67.53;;;37.63;;
61907;SDS011;47864;52.526;19.672;2024-03-02T10:15:04;62.63;;;34.55;;
61907;SDS011;47864;52.526;19.672;2024-03-02T10:17:07;68.55;;;35.30;;
61907;SDS011;47864;52.526;19.672;2024-03-02T10:19:20;69.13;;;37.90;;
61907;SDS011;47864;52.526;19.672;2024-03-02T10:21:22;68.90;;;34.30;;
61907;SDS011;47864;52.526;19.672;2024-03-02T10:23:24;62.75;;;33.90;;
61907;SDS011;47864;52.526;19.672;2024-03-02T10:25:29;57.03;;;31.88;;
61907;SDS011;47864;52.526;19.672;2024-03-02T10:27:37;61.17;;;32.40;;
61907;SDS011;47864;52.526;19.672;2024-03-02T10:29:41;56.90;;;32.15;;
61907;SDS011;47864;52.526;19.672;2024-03-02T10:31:43;62.92;;;33.95;;
61907;SDS011;47864;52.526;19.672;2024-03-02T10:33:46;66.68;;;34.65;;
61907;SDS011;47864;52.526;19.672;2024-03-02T10:35:47;60.90;;;33.45;;
61907;SDS011;47864;52.526;19.672;2024-03-02T10:37:52;62.70;;;31.92;;
61907;SDS011;47864;52.526;19.672;2024-03-02T10:39:54;62.00;;;34.28;;
61907;SDS011;47864;52.526;19.672;2024-03-02T10:41:55;64.47;;;33.65;;
61907;SDS011;47864;52.526;19.672;2024-03-02T10:43:57;59.50;;;32.85;;
61907;SDS011;47864;52.526;19.672;2024-03-02T10:45:59;60.35;;;32.63;;
61907;SDS011;47864;52.526;19.672;2024-03-02T10:48:01;59.38;;;34.35;;
61907;SDS011;47864;52.526;19.672;2024-03-02T10:50:07;59.95;;;32.72;;
61907;SDS011;47864;52.526;19.672;2024-03-02T10:52:09;57.00;;;32.25;;
61907;SDS011;47864;52.526;19.672;2024-03-02T10:54:10;57.55;;;29.38;;
61907;SDS011;47864;52.526;19.672;2024-03-02T10:56:13;59.63;;;31.75;;
61907;SDS011;47864;52.526;19.672;2024-03-02T10:58:22;58.25;;;32.65;;
61907;SDS011;47864;52.526;19.672;2024-03-02T11:00:28;56.20;;;31.25;;
61907;SDS011;47864;52.526;19.672;2024-03-02T11:02:34;54.13;;;30.10;;
61907;SDS011;47864;52.526;19.672;2024-03-02T11:04:37;55.30;;;31.77;;
61907;SDS011;47864;52.526;19.672;2024-03-02T11:06:47;53.47;;;31.15;;
61907;SDS011;47864;52.526;19.672;2024-03-02T11:08:50;53.45;;;29.35;;
61907;SDS011;47864;52.526;19.672;2024-03-02T11:10:57;59.83;;;32.60;;
61907;SDS011;47864;52.526;19.672;2024-03-02T11:13:11;54.97;;;31.38;;
61907;SDS011;47864;52.526;19.672;2024-03-02T11:15:18;55.72;;;31.17;;
61907;SDS011;47864;52.526;19.672;2024-03-02T11:17:19;54.85;;;32.50;;
61907;SDS011;47864;52.526;19.672;2024-03-02T11:19:22;51.38;;;30.45;;
61907;SDS011;47864;52.526;19.672;2024-03-02T11:21:25;50.55;;;29.98;;
61907;SDS011;47864;52.526;19.672;2024-03-02T11:23:33;66.95;;;36.83;;
61907;SDS011;47864;52.526;19.672;2024-03-02T11:25:36;53.88;;;29.65;;
61907;SDS011;47864;52.526;19.672;2024-03-02T11:29:48;54.63;;;30.48;;
61907;SDS011;47864;52.526;19.672;2024-03-02T11:32:32;53.28;;;28.35;;
61907;SDS011;47864;52.526;19.672;2024-03-02T11:34:17;49.58;;;28.48;;
61907;SDS011;47864;52.526;19.672;2024-03-02T11:36:29;43.63;;;26.48;;
61907;SDS011;47864;52.526;19.672;2024-03-02T11:38:32;54.40;;;29.38;;
61907;SDS011;47864;52.526;19.672;2024-03-02T11:40:35;49.50;;;27.33;;
61907;SDS011;47864;52.526;19.672;2024-03-02T11:42:36;49.05;;;27.60;;
61907;SDS011;47864;52.526;19.672;2024-03-02T11:44:39;50.97;;;28.50;;
61907;SDS011;47864;52.526;19.672;2024-03-02T11:46:44;47.05;;;26.92;;
61907;SDS011;47864;52.526;19.672;2024-03-02T11:50:51;45.85;;;28.10;;
61907;SDS011;47864;52.526;19.672;2024-03-02T11:52:53;44.10;;;26.58;;
61907;SDS011;47864;52.526;19.672;2024-03-02T11:54:54;47.75;;;28.15;;